createdAt,value
2017-10-08T06:42:03.394Z,10.17
2017-10-08T07:12:56.007Z,10.43
2017-10-08T07:19:13.899Z,10.39
2017-10-08T07:20:12.744Z,10.37
2017-10-08T07:21:12.723Z,10.34
2017-10-08T07:22:13.642Z,10.36
2017-10-08T07:23:13.724Z,10.36
2017-10-08T07:29:39.326Z,10.46
2017-10-08T07:49:38.769Z,10.74
2017-10-08T08:04:40.777Z,11.11
2017-10-08T08:05:41.181Z,11.06
2017-10-08T08:18:10.614Z,11.87
2017-10-08T08:25:11.757Z,11.82
2017-10-08T08:34:17.843Z,12.04
2017-10-08T08:35:28.324Z,12.04
2017-10-08T08:41:33.083Z,11.82
2017-10-08T08:42:33.500Z,11.90
2017-10-08T08:43:33.020Z,11.87
2017-10-08T08:47:51.488Z,12.01
2017-10-08T08:52:29.483Z,12.05
2017-10-08T09:01:22.722Z,12.04
2017-10-08T09:02:15.113Z,12.20
2017-10-08T10:53:10.612Z,13.70
2017-10-08T10:56:55.666Z,13.67
2017-10-08T10:58:18.334Z,13.59
2017-10-08T10:58:49.806Z,13.69
2017-10-08T11:01:49.170Z,13.49
2017-10-08T11:02:47.515Z,13.46
2017-10-08T11:03:48.590Z,13.58
2017-10-08T11:04:47.393Z,13.63
2017-10-08T11:05:47.211Z,13.43
2017-10-08T11:06:47.321Z,13.58
2017-10-08T11:07:47.798Z,13.59
2017-10-08T11:16:26.598Z,13.41
2017-10-08T11:19:35.001Z,13.41
2017-10-08T11:20:35.466Z,13.44
2017-10-08T11:21:35.761Z,13.51
2017-10-08T11:22:35.369Z,13.61
2017-10-08T11:23:35.747Z,13.58
2017-10-08T11:24:35.328Z,13.63
2017-10-08T11:25:35.306Z,13.46
2017-10-08T11:26:35.309Z,13.43
2017-10-08T11:27:37.291Z,13.37
2017-10-08T11:30:30.429Z,13.41
2017-10-08T11:31:28.012Z,13.58
2017-10-08T11:32:28.066Z,13.83
2017-10-08T11:33:27.543Z,13.73
2017-10-08T11:34:27.453Z,13.94
2017-10-08T11:35:28.951Z,13.94
2017-10-08T11:36:27.994Z,13.96
2017-10-08T11:37:27.925Z,14.07
2017-10-08T11:38:27.802Z,14.19
2017-10-08T11:39:28.333Z,14.14
2017-10-08T11:40:27.338Z,14.16
2017-10-08T11:41:27.975Z,14.10
2017-10-08T11:42:28.489Z,14.09
2017-10-08T11:43:27.138Z,13.99
2017-10-08T11:44:26.954Z,13.94
2017-10-08T11:45:26.646Z,14.02
2017-10-08T11:46:26.553Z,14.09
2017-10-08T11:47:26.683Z,13.94
2017-10-08T11:48:26.823Z,13.74
2017-10-08T11:49:26.562Z,13.69
2017-10-08T11:50:26.528Z,13.84
2017-10-08T11:51:26.788Z,14.02
2017-10-08T11:52:26.431Z,13.98
2017-10-08T11:53:26.370Z,13.98
2017-10-08T11:54:26.572Z,14.02
2017-10-08T11:55:26.241Z,14.01
2017-10-08T11:56:26.329Z,13.99
2017-10-08T11:57:26.242Z,14.04
2017-10-08T11:58:26.240Z,13.88
2017-10-08T11:59:26.252Z,13.81
2017-10-08T12:00:26.197Z,13.83
2017-10-08T12:01:26.149Z,13.62
2017-10-08T12:02:26.098Z,13.62
2017-10-08T12:03:26.027Z,13.49
2017-10-08T12:04:26.136Z,13.56
2017-10-08T12:05:25.939Z,13.40
2017-10-08T12:09:30.018Z,13.22
2017-10-08T12:10:26.922Z,13.17
2017-10-08T12:13:08.174Z,12.97
2017-10-08T12:14:08.184Z,12.67
